MMCV

General Pedro Jose Mendez International Airport

Ciudad Victoria, Mexico
METAR MMCV 200245Z 28005KT 10SM BKN200 15/M02 A3030 RMK SLP275 52047 949 8/001
Observed Flight Rules
Jan-20 @ 02:45 UTC (10 hours ago) Visual Flight Rules
Wind Visibility Clouds
280° at 5 knots 10 miles
  • Broken at 20,000' AGL
Temperatures Readings
Current 15°C / 59°F
Dewpoint -2°C / 28°F
Humidity 31%
Altimeter 30.3" Hg
Pressure 1027.5 hPa
Elevation 238
METAR MMCV 200245Z 28005KT 10SM BKN200 15/M02 A3030 RMK SLP275 52047 949 8/001
Observed Flight Rules
Jan-20 @ 02:45 UTC
(10 hours ago)
VFR
Wind Visibility
280° at 5 knots 10 miles
Clouds
  • Broken at 20,000' AGL
Temperature Dewpoint
15°C / 59°F -2°C / 28°F
Humidity Altimeter Pressure
31% 30.3" Hg 1027.5 hPa